sensor_id;sensor_type;location;lat;lon;timestamp;P1;durP1;ratioP1;P2;durP2;ratioP2
19253;SDS011;9761;50.926;5.330;2022-12-18T00:01:18;52.60;;;23.67;;
19253;SDS011;9761;50.926;5.330;2022-12-18T00:03:46;56.27;;;25.03;;
19253;SDS011;9761;50.926;5.330;2022-12-18T00:06:15;58.57;;;26.17;;
19253;SDS011;9761;50.926;5.330;2022-12-18T00:08:42;57.80;;;25.53;;
19253;SDS011;9761;50.926;5.330;2022-12-18T00:11:11;61.97;;;24.03;;
19253;SDS011;9761;50.926;5.330;2022-12-18T00:13:39;57.27;;;25.87;;
19253;SDS011;9761;50.926;5.330;2022-12-18T00:16:07;52.23;;;23.73;;
19253;SDS011;9761;50.926;5.330;2022-12-18T00:18:36;60.07;;;24.60;;
19253;SDS011;9761;50.926;5.330;2022-12-18T00:21:04;62.70;;;24.70;;
19253;SDS011;9761;50.926;5.330;2022-12-18T00:23:35;51.73;;;23.13;;
19253;SDS011;9761;50.926;5.330;2022-12-18T00:26:03;45.73;;;21.67;;
19253;SDS011;9761;50.926;5.330;2022-12-18T00:28:32;46.47;;;23.67;;
19253;SDS011;9761;50.926;5.330;2022-12-18T00:31:00;48.10;;;21.97;;
19253;SDS011;9761;50.926;5.330;2022-12-18T00:33:27;46.60;;;22.57;;
19253;SDS011;9761;50.926;5.330;2022-12-18T00:35:54;47.37;;;23.83;;
19253;SDS011;9761;50.926;5.330;2022-12-18T00:38:26;49.43;;;23.73;;
19253;SDS011;9761;50.926;5.330;2022-12-18T00:40:54;55.10;;;23.77;;
19253;SDS011;9761;50.926;5.330;2022-12-18T00:43:21;48.23;;;22.93;;
19253;SDS011;9761;50.926;5.330;2022-12-18T00:45:48;47.10;;;22.60;;
19253;SDS011;9761;50.926;5.330;2022-12-18T00:48:30;43.33;;;22.40;;
19253;SDS011;9761;50.926;5.330;2022-12-18T00:50:57;52.67;;;24.30;;
19253;SDS011;9761;50.926;5.330;2022-12-18T00:53:24;46.37;;;23.73;;
19253;SDS011;9761;50.926;5.330;2022-12-18T00:55:52;44.13;;;22.93;;
19253;SDS011;9761;50.926;5.330;2022-12-18T00:58:21;52.33;;;22.57;;
19253;SDS011;9761;50.926;5.330;2022-12-18T01:00:48;47.87;;;22.67;;
19253;SDS011;9761;50.926;5.330;2022-12-18T01:03:17;36.77;;;21.20;;
19253;SDS011;9761;50.926;5.330;2022-12-18T01:08:46;44.83;;;21.57;;
19253;SDS011;9761;50.926;5.330;2022-12-18T01:11:19;49.47;;;23.07;;
19253;SDS011;9761;50.926;5.330;2022-12-18T01:13:49;44.43;;;21.27;;
19253;SDS011;9761;50.926;5.330;2022-12-18T01:16:19;53.70;;;23.37;;
19253;SDS011;9761;50.926;5.330;2022-12-18T01:18:51;46.50;;;21.57;;
19253;SDS011;9761;50.926;5.330;2022-12-18T01:21:22;48.80;;;21.13;;
19253;SDS011;9761;50.926;5.330;2022-12-18T01:23:52;44.70;;;22.17;;
19253;SDS011;9761;50.926;5.330;2022-12-18T01:26:21;39.37;;;21.30;;
19253;SDS011;9761;50.926;5.330;2022-12-18T01:28:53;44.73;;;20.37;;
19253;SDS011;9761;50.926;5.330;2022-12-18T01:31:22;52.10;;;23.00;;
19253;SDS011;9761;50.926;5.330;2022-12-18T01:33:51;39.43;;;20.17;;
19253;SDS011;9761;50.926;5.330;2022-12-18T01:36:20;41.80;;;21.00;;
19253;SDS011;9761;50.926;5.330;2022-12-18T01:38:49;44.87;;;21.10;;
19253;SDS011;9761;50.926;5.330;2022-12-18T01:41:18;40.87;;;20.50;;
19253;SDS011;9761;50.926;5.330;2022-12-18T01:43:49;51.97;;;22.73;;
19253;SDS011;9761;50.926;5.330;2022-12-18T01:46:20;37.27;;;19.27;;
19253;SDS011;9761;50.926;5.330;2022-12-18T01:48:49;44.40;;;21.57;;
19253;SDS011;9761;50.926;5.330;2022-12-18T01:51:19;42.63;;;20.10;;
19253;SDS011;9761;50.926;5.330;2022-12-18T01:53:46;46.70;;;21.40;;
19253;SDS011;9761;50.926;5.330;2022-12-18T01:56:16;43.33;;;20.47;;
19253;SDS011;9761;50.926;5.330;2022-12-18T01:58:48;42.77;;;20.40;;
19253;SDS011;9761;50.926;5.330;2022-12-18T02:01:23;46.40;;;21.27;;
19253;SDS011;9761;50.926;5.330;2022-12-18T02:03:51;47.27;;;19.97;;
19253;SDS011;9761;50.926;5.330;2022-12-18T02:06:20;43.47;;;21.63;;
19253;SDS011;9761;50.926;5.330;2022-12-18T02:08:55;38.77;;;20.03;;
19253;SDS011;9761;50.926;5.330;2022-12-18T02:11:36;41.43;;;22.00;;
19253;SDS011;9761;50.926;5.330;2022-12-18T02:14:12;46.70;;;22.50;;
19253;SDS011;9761;50.926;5.330;2022-12-18T02:16:49;44.67;;;21.03;;
19253;SDS011;9761;50.926;5.330;2022-12-18T02:22:12;41.77;;;20.93;;
19253;SDS011;9761;50.926;5.330;2022-12-18T02:24:51;40.93;;;21.50;;
19253;SDS011;9761;50.926;5.330;2022-12-18T02:27:33;38.67;;;20.70;;
19253;SDS011;9761;50.926;5.330;2022-12-18T02:30:04;33.50;;;18.43;;
19253;SDS011;9761;50.926;5.330;2022-12-18T02:32:34;37.77;;;20.07;;
19253;SDS011;9761;50.926;5.330;2022-12-18T02:35:05;38.80;;;21.13;;
19253;SDS011;9761;50.926;5.330;2022-12-18T02:37:34;33.20;;;20.13;;
19253;SDS011;9761;50.926;5.330;2022-12-18T02:40:05;40.83;;;18.13;;
19253;SDS011;9761;50.926;5.330;2022-12-18T02:42:35;35.73;;;18.67;;
19253;SDS011;9761;50.926;5.330;2022-12-18T02:45:03;35.40;;;18.10;;
19253;SDS011;9761;50.926;5.330;2022-12-18T02:47:32;34.27;;;18.47;;
19253;SDS011;9761;50.926;5.330;2022-12-18T02:50:05;41.30;;;20.00;;
19253;SDS011;9761;50.926;5.330;2022-12-18T02:52:39;38.80;;;18.80;;
19253;SDS011;9761;50.926;5.330;2022-12-18T02:55:16;34.53;;;17.50;;
19253;SDS011;9761;50.926;5.330;2022-12-18T02:57:55;32.80;;;18.20;;
19253;SDS011;9761;50.926;5.330;2022-12-18T03:00:26;31.00;;;18.50;;
19253;SDS011;9761;50.926;5.330;2022-12-18T03:03:00;33.07;;;17.17;;
19253;SDS011;9761;50.926;5.330;2022-12-18T03:05:33;33.30;;;18.17;;
19253;SDS011;9761;50.926;5.330;2022-12-18T03:08:06;30.47;;;16.17;;
19253;SDS011;9761;50.926;5.330;2022-12-18T03:10:37;32.93;;;16.10;;
19253;SDS011;9761;50.926;5.330;2022-12-18T03:13:13;35.77;;;16.40;;
19253;SDS011;9761;50.926;5.330;2022-12-18T03:15:47;33.17;;;16.43;;
19253;SDS011;9761;50.926;5.330;2022-12-18T03:18:16;29.90;;;14.70;;
19253;SDS011;9761;50.926;5.330;2022-12-18T03:20:46;31.57;;;17.07;;
19253;SDS011;9761;50.926;5.330;2022-12-18T03:23:15;32.13;;;15.77;;
19253;SDS011;9761;50.926;5.330;2022-12-18T03:25:45;36.90;;;15.70;;
19253;SDS011;9761;50.926;5.330;2022-12-18T03:28:16;31.47;;;15.10;;
19253;SDS011;9761;50.926;5.330;2022-12-18T03:30:47;29.30;;;15.27;;
19253;SDS011;9761;50.926;5.330;2022-12-18T03:33:21;32.00;;;14.97;;
19253;SDS011;9761;50.926;5.330;2022-12-18T03:35:53;30.13;;;15.40;;
19253;SDS011;9761;50.926;5.330;2022-12-18T03:38:20;30.33;;;14.90;;
19253;SDS011;9761;50.926;5.330;2022-12-18T03:40:50;32.77;;;15.97;;
19253;SDS011;9761;50.926;5.330;2022-12-18T03:43:28;33.10;;;13.63;;
19253;SDS011;9761;50.926;5.330;2022-12-18T03:46:02;27.77;;;14.30;;
19253;SDS011;9761;50.926;5.330;2022-12-18T03:48:35;22.80;;;13.17;;
19253;SDS011;9761;50.926;5.330;2022-12-18T03:51:09;27.30;;;14.23;;
19253;SDS011;9761;50.926;5.330;2022-12-18T03:53:40;34.57;;;15.20;;
19253;SDS011;9761;50.926;5.330;2022-12-18T03:56:15;32.00;;;14.97;;
19253;SDS011;9761;50.926;5.330;2022-12-18T03:58:44;28.93;;;14.63;;
19253;SDS011;9761;50.926;5.330;2022-12-18T04:01:14;35.83;;;14.57;;
19253;SDS011;9761;50.926;5.330;2022-12-18T04:03:42;19.90;;;13.10;;
19253;SDS011;9761;50.926;5.330;2022-12-18T04:06:12;27.33;;;13.97;;
19253;SDS011;9761;50.926;5.330;2022-12-18T04:08:41;29.97;;;13.87;;
19253;SDS011;9761;50.926;5.330;2022-12-18T04:11:10;32.40;;;14.33;;
19253;SDS011;9761;50.926;5.330;2022-12-18T04:13:37;27.43;;;14.60;;
19253;SDS011;9761;50.926;5.330;2022-12-18T04:16:09;29.97;;;13.97;;
19253;SDS011;9761;50.926;5.330;2022-12-18T04:18:37;26.17;;;13.37;;
19253;SDS011;9761;50.926;5.330;2022-12-18T04:21:06;29.70;;;14.83;;
19253;SDS011;9761;50.926;5.330;2022-12-18T04:23:33;26.83;;;12.87;;
19253;SDS011;9761;50.926;5.330;2022-12-18T04:26:00;28.60;;;14.40;;
19253;SDS011;9761;50.926;5.330;2022-12-18T04:28:28;29.37;;;15.03;;
19253;SDS011;9761;50.926;5.330;2022-12-18T04:30:55;27.63;;;14.47;;
19253;SDS011;9761;50.926;5.330;2022-12-18T04:33:24;29.87;;;13.43;;
19253;SDS011;9761;50.926;5.330;2022-12-18T04:35:51;28.37;;;14.97;;
19253;SDS011;9761;50.926;5.330;2022-12-18T04:38:21;29.97;;;14.70;;
19253;SDS011;9761;50.926;5.330;2022-12-18T04:40:52;26.43;;;14.07;;
19253;SDS011;9761;50.926;5.330;2022-12-18T04:43:19;26.37;;;12.83;;
19253;SDS011;9761;50.926;5.330;2022-12-18T04:45:46;28.67;;;12.73;;
19253;SDS011;9761;50.926;5.330;2022-12-18T04:48:13;25.73;;;13.47;;
19253;SDS011;9761;50.926;5.330;2022-12-18T04:50:41;24.87;;;13.33;;
19253;SDS011;9761;50.926;5.330;2022-12-18T04:53:08;23.17;;;13.20;;
19253;SDS011;9761;50.926;5.330;2022-12-18T04:55:35;19.73;;;11.97;;
19253;SDS011;9761;50.926;5.330;2022-12-18T04:58:02;25.63;;;12.93;;
19253;SDS011;9761;50.926;5.330;2022-12-18T05:00:30;25.47;;;13.80;;
19253;SDS011;9761;50.926;5.330;2022-12-18T05:02:57;22.13;;;12.23;;
19253;SDS011;9761;50.926;5.330;2022-12-18T05:05:26;17.37;;;11.97;;
19253;SDS011;9761;50.926;5.330;2022-12-18T05:07:55;22.40;;;13.20;;
19253;SDS011;9761;50.926;5.330;2022-12-18T05:10:23;23.93;;;13.07;;
19253;SDS011;9761;50.926;5.330;2022-12-18T05:12:50;25.33;;;12.23;;
19253;SDS011;9761;50.926;5.330;2022-12-18T05:15:28;17.93;;;11.40;;
19253;SDS011;9761;50.926;5.330;2022-12-18T05:17:57;23.40;;;11.80;;
19253;SDS011;9761;50.926;5.330;2022-12-18T05:20:25;24.77;;;11.93;;
19253;SDS011;9761;50.926;5.330;2022-12-18T05:22:53;23.47;;;12.20;;
19253;SDS011;9761;50.926;5.330;2022-12-18T05:25:21;20.40;;;11.97;;
19253;SDS011;9761;50.926;5.330;2022-12-18T05:27:49;21.37;;;10.70;;
19253;SDS011;9761;50.926;5.330;2022-12-18T05:30:16;21.77;;;11.23;;
19253;SDS011;9761;50.926;5.330;2022-12-18T05:32:47;23.43;;;12.60;;
19253;SDS011;9761;50.926;5.330;2022-12-18T05:35:14;21.63;;;11.53;;
19253;SDS011;9761;50.926;5.330;2022-12-18T05:37:42;24.70;;;11.73;;
19253;SDS011;9761;50.926;5.330;2022-12-18T05:40:11;22.57;;;12.27;;
19253;SDS011;9761;50.926;5.330;2022-12-18T05:42:39;19.33;;;10.83;;
19253;SDS011;9761;50.926;5.330;2022-12-18T05:45:07;20.50;;;10.70;;
19253;SDS011;9761;50.926;5.330;2022-12-18T05:47:35;17.73;;;11.17;;
19253;SDS011;9761;50.926;5.330;2022-12-18T05:50:02;19.20;;;10.57;;
19253;SDS011;9761;50.926;5.330;2022-12-18T05:52:30;22.33;;;11.43;;
19253;SDS011;9761;50.926;5.330;2022-12-18T05:54:59;18.33;;;9.70;;
19253;SDS011;9761;50.926;5.330;2022-12-18T05:57:27;21.03;;;10.03;;
19253;SDS011;9761;50.926;5.330;2022-12-18T05:59:54;18.70;;;9.93;;
19253;SDS011;9761;50.926;5.330;2022-12-18T06:02:21;16.47;;;10.20;;
19253;SDS011;9761;50.926;5.330;2022-12-18T06:04:51;16.30;;;9.07;;
19253;SDS011;9761;50.926;5.330;2022-12-18T06:07:20;22.07;;;10.57;;
19253;SDS011;9761;50.926;5.330;2022-12-18T06:09:47;18.73;;;9.90;;
19253;SDS011;9761;50.926;5.330;2022-12-18T06:12:14;16.50;;;9.33;;
19253;SDS011;9761;50.926;5.330;2022-12-18T06:14:44;13.17;;;9.40;;
19253;SDS011;9761;50.926;5.330;2022-12-18T06:17:12;19.23;;;10.03;;
19253;SDS011;9761;50.926;5.330;2022-12-18T06:19:39;17.83;;;10.30;;
19253;SDS011;9761;50.926;5.330;2022-12-18T06:22:06;18.40;;;9.37;;
19253;SDS011;9761;50.926;5.330;2022-12-18T06:24:33;15.93;;;9.70;;
19253;SDS011;9761;50.926;5.330;2022-12-18T06:27:00;15.37;;;9.27;;
19253;SDS011;9761;50.926;5.330;2022-12-18T06:29:27;16.40;;;9.00;;
19253;SDS011;9761;50.926;5.330;2022-12-18T06:32:01;12.67;;;9.13;;
19253;SDS011;9761;50.926;5.330;2022-12-18T06:34:28;17.70;;;8.83;;
19253;SDS011;9761;50.926;5.330;2022-12-18T06:36:57;21.17;;;9.40;;
19253;SDS011;9761;50.926;5.330;2022-12-18T06:39:24;15.10;;;8.47;;
19253;SDS011;9761;50.926;5.330;2022-12-18T06:41:55;15.30;;;9.20;;
19253;SDS011;9761;50.926;5.330;2022-12-18T06:44:23;19.70;;;8.00;;
19253;SDS011;9761;50.926;5.330;2022-12-18T06:46:50;12.80;;;8.03;;
19253;SDS011;9761;50.926;5.330;2022-12-18T06:49:18;18.47;;;8.53;;
19253;SDS011;9761;50.926;5.330;2022-12-18T06:51:46;13.63;;;8.13;;
19253;SDS011;9761;50.926;5.330;2022-12-18T06:54:13;12.73;;;7.83;;
19253;SDS011;9761;50.926;5.330;2022-12-18T06:56:44;14.33;;;7.53;;
19253;SDS011;9761;50.926;5.330;2022-12-18T06:59:11;14.07;;;8.07;;
19253;SDS011;9761;50.926;5.330;2022-12-18T07:01:40;14.87;;;8.90;;
19253;SDS011;9761;50.926;5.330;2022-12-18T07:04:11;13.07;;;7.63;;
19253;SDS011;9761;50.926;5.330;2022-12-18T07:06:40;13.50;;;8.83;;
19253;SDS011;9761;50.926;5.330;2022-12-18T07:09:07;12.47;;;7.43;;
19253;SDS011;9761;50.926;5.330;2022-12-18T07:11:34;13.57;;;8.03;;
19253;SDS011;9761;50.926;5.330;2022-12-18T07:14:01;18.30;;;8.70;;
19253;SDS011;9761;50.926;5.330;2022-12-18T07:16:28;15.23;;;9.07;;
19253;SDS011;9761;50.926;5.330;2022-12-18T07:18:55;17.73;;;8.53;;
19253;SDS011;9761;50.926;5.330;2022-12-18T07:21:23;13.37;;;7.47;;
19253;SDS011;9761;50.926;5.330;2022-12-18T07:23:52;15.73;;;8.20;;
19253;SDS011;9761;50.926;5.330;2022-12-18T07:26:19;18.10;;;8.53;;
19253;SDS011;9761;50.926;5.330;2022-12-18T07:28:54;15.33;;;8.10;;
19253;SDS011;9761;50.926;5.330;2022-12-18T07:31:25;14.80;;;8.57;;
19253;SDS011;9761;50.926;5.330;2022-12-18T07:33:52;14.93;;;8.50;;
19253;SDS011;9761;50.926;5.330;2022-12-18T07:36:25;15.90;;;8.60;;
19253;SDS011;9761;50.926;5.330;2022-12-18T07:38:54;14.17;;;7.13;;
19253;SDS011;9761;50.926;5.330;2022-12-18T07:41:33;15.60;;;8.60;;
19253;SDS011;9761;50.926;5.330;2022-12-18T07:44:01;13.43;;;7.73;;
19253;SDS011;9761;50.926;5.330;2022-12-18T07:46:28;20.13;;;9.33;;
19253;SDS011;9761;50.926;5.330;2022-12-18T07:48:55;15.77;;;8.10;;
19253;SDS011;9761;50.926;5.330;2022-12-18T07:51:22;16.80;;;8.60;;
19253;SDS011;9761;50.926;5.330;2022-12-18T07:53:49;11.80;;;7.37;;
19253;SDS011;9761;50.926;5.330;2022-12-18T08:05:00;13.43;;;7.90;;
19253;SDS011;9761;50.926;5.330;2022-12-18T08:07:27;14.70;;;7.50;;
19253;SDS011;9761;50.926;5.330;2022-12-18T08:09:56;14.17;;;7.43;;
19253;SDS011;9761;50.926;5.330;2022-12-18T08:18:56;12.83;;;6.83;;
19253;SDS011;9761;50.926;5.330;2022-12-18T08:21:25;11.33;;;7.53;;
19253;SDS011;9761;50.926;5.330;2022-12-18T08:23:57;12.00;;;7.63;;
19253;SDS011;9761;50.926;5.330;2022-12-18T08:26:26;11.10;;;7.50;;
19253;SDS011;9761;50.926;5.330;2022-12-18T08:28:54;15.60;;;7.83;;
19253;SDS011;9761;50.926;5.330;2022-12-18T08:31:49;10.93;;;7.33;;
19253;SDS011;9761;50.926;5.330;2022-12-18T08:34:23;13.83;;;7.27;;
19253;SDS011;9761;50.926;5.330;2022-12-18T08:36:50;14.60;;;7.87;;
19253;SDS011;9761;50.926;5.330;2022-12-18T08:39:17;13.40;;;7.67;;
19253;SDS011;9761;50.926;5.330;2022-12-18T08:41:44;13.43;;;7.43;;
19253;SDS011;9761;50.926;5.330;2022-12-18T08:44:32;15.97;;;7.47;;
19253;SDS011;9761;50.926;5.330;2022-12-18T08:47:04;16.10;;;7.17;;
19253;SDS011;9761;50.926;5.330;2022-12-18T08:49:34;12.93;;;7.47;;
19253;SDS011;9761;50.926;5.330;2022-12-18T08:52:01;13.73;;;7.50;;
19253;SDS011;9761;50.926;5.330;2022-12-18T08:54:28;11.47;;;7.60;;
19253;SDS011;9761;50.926;5.330;2022-12-18T08:56:56;11.40;;;7.27;;
19253;SDS011;9761;50.926;5.330;2022-12-18T08:59:23;12.50;;;8.30;;
19253;SDS011;9761;50.926;5.330;2022-12-18T09:01:53;11.03;;;7.37;;
19253;SDS011;9761;50.926;5.330;2022-12-18T09:04:21;14.63;;;8.43;;
19253;SDS011;9761;50.926;5.330;2022-12-18T09:06:50;13.67;;;7.77;;
19253;SDS011;9761;50.926;5.330;2022-12-18T09:09:26;15.60;;;7.30;;
19253;SDS011;9761;50.926;5.330;2022-12-18T09:11:53;13.30;;;7.07;;
19253;SDS011;9761;50.926;5.330;2022-12-18T09:14:21;12.47;;;8.07;;
19253;SDS011;9761;50.926;5.330;2022-12-18T09:17:02;13.20;;;7.47;;
19253;SDS011;9761;50.926;5.330;2022-12-18T09:22:26;12.40;;;8.03;;
19253;SDS011;9761;50.926;5.330;2022-12-18T09:24:59;13.17;;;7.47;;
19253;SDS011;9761;50.926;5.330;2022-12-18T09:27:27;12.93;;;7.60;;
19253;SDS011;9761;50.926;5.330;2022-12-18T09:30:03;12.30;;;7.90;;
19253;SDS011;9761;50.926;5.330;2022-12-18T09:40:59;14.10;;;7.33;;
19253;SDS011;9761;50.926;5.330;2022-12-18T09:44:04;11.73;;;6.83;;
19253;SDS011;9761;50.926;5.330;2022-12-18T10:21:15;13.23;;;7.60;;
19253;SDS011;9761;50.926;5.330;2022-12-18T10:27:22;13.50;;;8.00;;
19253;SDS011;9761;50.926;5.330;2022-12-18T10:30:04;11.90;;;7.57;;
19253;SDS011;9761;50.926;5.330;2022-12-18T10:32:40;10.77;;;7.30;;
19253;SDS011;9761;50.926;5.330;2022-12-18T10:40:32;12.70;;;8.00;;
19253;SDS011;9761;50.926;5.330;2022-12-18T10:43:14;15.53;;;9.27;;
19253;SDS011;9761;50.926;5.330;2022-12-18T10:45:57;13.70;;;8.50;;
19253;SDS011;9761;50.926;5.330;2022-12-18T10:48:28;15.87;;;9.10;;
19253;SDS011;9761;50.926;5.330;2022-12-18T10:51:01;14.23;;;8.63;;
19253;SDS011;9761;50.926;5.330;2022-12-18T10:53:29;11.87;;;7.73;;
19253;SDS011;9761;50.926;5.330;2022-12-18T10:55:58;17.97;;;9.67;;
19253;SDS011;9761;50.926;5.330;2022-12-18T10:58:28;15.00;;;8.90;;
19253;SDS011;9761;50.926;5.330;2022-12-18T11:01:10;15.77;;;8.83;;
19253;SDS011;9761;50.926;5.330;2022-12-18T11:03:40;16.57;;;9.23;;
19253;SDS011;9761;50.926;5.330;2022-12-18T11:06:10;16.93;;;9.23;;
19253;SDS011;9761;50.926;5.330;2022-12-18T11:11:14;13.27;;;9.07;;
19253;SDS011;9761;50.926;5.330;2022-12-18T11:13:50;15.70;;;8.63;;
19253;SDS011;9761;50.926;5.330;2022-12-18T11:16:25;14.73;;;7.77;;
19253;SDS011;9761;50.926;5.330;2022-12-18T11:19:00;13.67;;;7.90;;
19253;SDS011;9761;50.926;5.330;2022-12-18T11:21:39;16.50;;;8.27;;
19253;SDS011;9761;50.926;5.330;2022-12-18T11:24:13;16.27;;;8.17;;
19253;SDS011;9761;50.926;5.330;2022-12-18T11:26:57;14.33;;;9.13;;
19253;SDS011;9761;50.926;5.330;2022-12-18T11:29:30;12.83;;;8.50;;
19253;SDS011;9761;50.926;5.330;2022-12-18T11:32:13;14.30;;;9.13;;
19253;SDS011;9761;50.926;5.330;2022-12-18T11:35:07;14.10;;;8.90;;
19253;SDS011;9761;50.926;5.330;2022-12-18T11:37:41;18.03;;;9.80;;
19253;SDS011;9761;50.926;5.330;2022-12-18T11:40:14;18.60;;;9.90;;
19253;SDS011;9761;50.926;5.330;2022-12-18T11:42:45;16.50;;;10.10;;
19253;SDS011;9761;50.926;5.330;2022-12-18T11:45:27;18.23;;;10.57;;
19253;SDS011;9761;50.926;5.330;2022-12-18T11:47:58;16.60;;;9.57;;
19253;SDS011;9761;50.926;5.330;2022-12-18T11:50:33;16.50;;;9.67;;
19253;SDS011;9761;50.926;5.330;2022-12-18T11:53:12;16.13;;;9.37;;
19253;SDS011;9761;50.926;5.330;2022-12-18T11:59:04;17.77;;;10.27;;
19253;SDS011;9761;50.926;5.330;2022-12-18T12:01:45;18.00;;;10.60;;
19253;SDS011;9761;50.926;5.330;2022-12-18T12:07:23;15.90;;;10.17;;
19253;SDS011;9761;50.926;5.330;2022-12-18T12:10:01;16.63;;;9.90;;
19253;SDS011;9761;50.926;5.330;2022-12-18T12:12:38;14.27;;;8.53;;
19253;SDS011;9761;50.926;5.330;2022-12-18T12:15:22;14.17;;;9.43;;
19253;SDS011;9761;50.926;5.330;2022-12-18T12:18:15;18.67;;;9.87;;
19253;SDS011;9761;50.926;5.330;2022-12-18T12:20:58;12.40;;;9.03;;
19253;SDS011;9761;50.926;5.330;2022-12-18T12:23:34;15.50;;;9.87;;
19253;SDS011;9761;50.926;5.330;2022-12-18T12:26:10;15.97;;;9.50;;
19253;SDS011;9761;50.926;5.330;2022-12-18T12:28:47;15.27;;;9.40;;
19253;SDS011;9761;50.926;5.330;2022-12-18T12:41:02;15.43;;;10.20;;
19253;SDS011;9761;50.926;5.330;2022-12-18T12:43:52;18.60;;;11.20;;
19253;SDS011;9761;50.926;5.330;2022-12-18T12:46:21;17.67;;;11.27;;
19253;SDS011;9761;50.926;5.330;2022-12-18T12:51:26;19.30;;;11.37;;
19253;SDS011;9761;50.926;5.330;2022-12-18T12:55:16;18.30;;;10.93;;
19253;SDS011;9761;50.926;5.330;2022-12-18T12:57:08;18.90;;;12.07;;
19253;SDS011;9761;50.926;5.330;2022-12-18T12:59:40;21.67;;;12.93;;
19253;SDS011;9761;50.926;5.330;2022-12-18T13:02:25;23.37;;;12.53;;
19253;SDS011;9761;50.926;5.330;2022-12-18T13:08:11;18.20;;;10.20;;
19253;SDS011;9761;50.926;5.330;2022-12-18T13:10:52;21.60;;;11.23;;
19253;SDS011;9761;50.926;5.330;2022-12-18T13:13:57;15.60;;;10.40;;
19253;SDS011;9761;50.926;5.330;2022-12-18T13:16:24;15.97;;;10.87;;
19253;SDS011;9761;50.926;5.330;2022-12-18T13:18:55;17.80;;;10.27;;
19253;SDS011;9761;50.926;5.330;2022-12-18T13:21:24;16.17;;;10.33;;
19253;SDS011;9761;50.926;5.330;2022-12-18T13:23:53;19.53;;;11.47;;
19253;SDS011;9761;50.926;5.330;2022-12-18T13:26:31;24.57;;;14.07;;
19253;SDS011;9761;50.926;5.330;2022-12-18T13:29:01;20.43;;;11.17;;
19253;SDS011;9761;50.926;5.330;2022-12-18T13:34:33;16.67;;;10.77;;
19253;SDS011;9761;50.926;5.330;2022-12-18T13:43:22;19.80;;;12.60;;
19253;SDS011;9761;50.926;5.330;2022-12-18T13:46:04;20.63;;;11.77;;
19253;SDS011;9761;50.926;5.330;2022-12-18T13:48:48;19.17;;;10.53;;
19253;SDS011;9761;50.926;5.330;2022-12-18T13:51:19;20.60;;;11.40;;
19253;SDS011;9761;50.926;5.330;2022-12-18T13:53:48;19.93;;;11.10;;
19253;SDS011;9761;50.926;5.330;2022-12-18T13:56:21;17.67;;;10.97;;
19253;SDS011;9761;50.926;5.330;2022-12-18T14:01:43;19.47;;;12.23;;
19253;SDS011;9761;50.926;5.330;2022-12-18T14:04:19;17.63;;;10.97;;
19253;SDS011;9761;50.926;5.330;2022-12-18T14:06:50;16.97;;;10.53;;
19253;SDS011;9761;50.926;5.330;2022-12-18T14:09:21;18.57;;;11.27;;
19253;SDS011;9761;50.926;5.330;2022-12-18T14:15:12;23.50;;;11.30;;
19253;SDS011;9761;50.926;5.330;2022-12-18T14:17:52;19.13;;;11.60;;
19253;SDS011;9761;50.926;5.330;2022-12-18T14:20:22;18.77;;;11.53;;
19253;SDS011;9761;50.926;5.330;2022-12-18T14:22:54;23.47;;;12.47;;
19253;SDS011;9761;50.926;5.330;2022-12-18T14:25:25;23.03;;;12.70;;
19253;SDS011;9761;50.926;5.330;2022-12-18T14:28:02;22.20;;;13.23;;
19253;SDS011;9761;50.926;5.330;2022-12-18T14:30:40;23.23;;;13.10;;
19253;SDS011;9761;50.926;5.330;2022-12-18T14:33:10;23.80;;;13.80;;
19253;SDS011;9761;50.926;5.330;2022-12-18T14:35:51;21.03;;;13.17;;
19253;SDS011;9761;50.926;5.330;2022-12-18T14:38:21;19.73;;;12.07;;
19253;SDS011;9761;50.926;5.330;2022-12-18T14:40:53;21.07;;;11.80;;
19253;SDS011;9761;50.926;5.330;2022-12-18T14:43:36;22.23;;;12.17;;
19253;SDS011;9761;50.926;5.330;2022-12-18T14:46:05;19.47;;;12.03;;
19253;SDS011;9761;50.926;5.330;2022-12-18T14:48:59;17.03;;;11.33;;
19253;SDS011;9761;50.926;5.330;2022-12-18T14:51:28;21.10;;;11.93;;
19253;SDS011;9761;50.926;5.330;2022-12-18T14:53:57;18.63;;;10.60;;
19253;SDS011;9761;50.926;5.330;2022-12-18T14:56:27;16.90;;;9.93;;
19253;SDS011;9761;50.926;5.330;2022-12-18T14:58:57;16.33;;;9.63;;
19253;SDS011;9761;50.926;5.330;2022-12-18T15:01:26;18.43;;;10.60;;
19253;SDS011;9761;50.926;5.330;2022-12-18T15:03:56;18.27;;;10.70;;
19253;SDS011;9761;50.926;5.330;2022-12-18T15:06:27;20.13;;;12.40;;
19253;SDS011;9761;50.926;5.330;2022-12-18T15:08:57;18.27;;;11.30;;
19253;SDS011;9761;50.926;5.330;2022-12-18T15:11:26;18.43;;;11.73;;
19253;SDS011;9761;50.926;5.330;2022-12-18T15:13:54;18.67;;;10.93;;
19253;SDS011;9761;50.926;5.330;2022-12-18T15:16:24;17.43;;;11.33;;
19253;SDS011;9761;50.926;5.330;2022-12-18T15:18:53;23.73;;;12.60;;
19253;SDS011;9761;50.926;5.330;2022-12-18T15:21:22;18.53;;;10.97;;
19253;SDS011;9761;50.926;5.330;2022-12-18T15:23:50;20.90;;;11.63;;
19253;SDS011;9761;50.926;5.330;2022-12-18T15:26:18;18.47;;;11.27;;
19253;SDS011;9761;50.926;5.330;2022-12-18T15:28:48;21.00;;;12.30;;
19253;SDS011;9761;50.926;5.330;2022-12-18T15:31:30;22.80;;;13.00;;
19253;SDS011;9761;50.926;5.330;2022-12-18T15:34:01;21.20;;;12.17;;
19253;SDS011;9761;50.926;5.330;2022-12-18T15:36:47;21.97;;;12.87;;
19253;SDS011;9761;50.926;5.330;2022-12-18T15:39:14;23.90;;;14.10;;
19253;SDS011;9761;50.926;5.330;2022-12-18T15:41:41;21.40;;;13.07;;
19253;SDS011;9761;50.926;5.330;2022-12-18T15:44:29;22.73;;;13.23;;
19253;SDS011;9761;50.926;5.330;2022-12-18T15:46:58;22.43;;;12.37;;
19253;SDS011;9761;50.926;5.330;2022-12-18T15:49:25;22.80;;;12.23;;
19253;SDS011;9761;50.926;5.330;2022-12-18T15:52:01;17.27;;;10.23;;
19253;SDS011;9761;50.926;5.330;2022-12-18T15:54:28;21.70;;;13.03;;
19253;SDS011;9761;50.926;5.330;2022-12-18T15:57:13;21.67;;;12.93;;
19253;SDS011;9761;50.926;5.330;2022-12-18T15:59:52;20.77;;;12.97;;
19253;SDS011;9761;50.926;5.330;2022-12-18T16:02:21;20.50;;;12.27;;
19253;SDS011;9761;50.926;5.330;2022-12-18T16:04:49;23.27;;;12.87;;
19253;SDS011;9761;50.926;5.330;2022-12-18T16:07:18;19.50;;;11.63;;
19253;SDS011;9761;50.926;5.330;2022-12-18T16:09:45;18.63;;;11.67;;
19253;SDS011;9761;50.926;5.330;2022-12-18T16:12:14;18.93;;;11.43;;
19253;SDS011;9761;50.926;5.330;2022-12-18T16:14:43;20.87;;;12.03;;
19253;SDS011;9761;50.926;5.330;2022-12-18T16:17:11;18.40;;;11.63;;
19253;SDS011;9761;50.926;5.330;2022-12-18T16:19:39;20.27;;;11.90;;
19253;SDS011;9761;50.926;5.330;2022-12-18T16:22:08;19.73;;;11.83;;
19253;SDS011;9761;50.926;5.330;2022-12-18T16:24:49;19.07;;;11.67;;
19253;SDS011;9761;50.926;5.330;2022-12-18T16:27:17;22.77;;;12.43;;
19253;SDS011;9761;50.926;5.330;2022-12-18T16:29:45;18.43;;;11.70;;
19253;SDS011;9761;50.926;5.330;2022-12-18T16:32:21;21.20;;;11.97;;
19253;SDS011;9761;50.926;5.330;2022-12-18T16:34:51;21.67;;;12.77;;
19253;SDS011;9761;50.926;5.330;2022-12-18T16:37:20;21.93;;;13.07;;
19253;SDS011;9761;50.926;5.330;2022-12-18T16:39:47;21.50;;;13.40;;
19253;SDS011;9761;50.926;5.330;2022-12-18T16:42:15;20.50;;;11.43;;
19253;SDS011;9761;50.926;5.330;2022-12-18T16:44:44;19.90;;;12.50;;
19253;SDS011;9761;50.926;5.330;2022-12-18T16:47:14;21.80;;;12.53;;
19253;SDS011;9761;50.926;5.330;2022-12-18T16:49:54;20.10;;;12.30;;
19253;SDS011;9761;50.926;5.330;2022-12-18T16:52:23;20.10;;;11.73;;
19253;SDS011;9761;50.926;5.330;2022-12-18T16:54:52;22.13;;;12.83;;
19253;SDS011;9761;50.926;5.330;2022-12-18T16:57:19;25.40;;;13.43;;
19253;SDS011;9761;50.926;5.330;2022-12-18T16:59:47;21.73;;;12.73;;